Bbm — CRGT — position and weather

sailwx.info

Track history (hours):
 
Tides and Currents Weather Stations Pressure Air Temp Water Temp Dewpoint Dewpoint Depression Visibility Wind Speed Wind Dir Waves Ship Positions

Bbm

Last reported at 2018-Jul-15 07:46 UTC. Time now 2018-Jul-20 06:57 UTC.
Position N 37°44' W 008°50'.

Length 14 m.

Type: Sailing vessel. MMSI: 263912000.

Date/timePositionNaut miles runAvg speedWind from/ knotsBaromVisibWave heightAir tempDewpointWater temp
2018-Jul-15 07:46N 37°44' W 008°50'2 7.1
2018-Jul-15 07:29N 37°46' W 008°51'3 7.1
2018-Jul-15 07:00N 37°49' W 008°51'4 6.8
2018-Jul-15 06:29N 37°53' W 008°52'3 6.6
2018-Jul-15 06:00N 37°56' W 008°52'1 2.1
2018-Jul-15 05:29N 37°57' W 008°52'0 0.0
2018-Jul-15 04:59N 37°57' W 008°52'0 0.0
2018-Jul-15 04:29N 37°57' W 008°52'0 0.0
2018-Jul-15 03:59N 37°57' W 008°52'0 0.0
2018-Jul-15 03:29N 37°57' W 008°52'0 0.0
2018-Jul-15 02:59N 37°57' W 008°52'0 0.0
2018-Jul-15 02:29N 37°57' W 008°52'0 0.0
2018-Jul-15 01:59N 37°57' W 008°52'0 0.0
2018-Jul-15 01:29N 37°57' W 008°52'0 0.0
2018-Jul-15 00:59N 37°57' W 008°52'0 0.0
2018-Jul-15 00:29N 37°57' W 008°52'0 0.0
2018-Jul-14 23:59N 37°57' W 008°52'0 0.0
2018-Jul-14 23:29N 37°57' W 008°52'0 0.0
2018-Jul-14 22:59N 37°57' W 008°52'0 0.0
2018-Jul-14 22:29N 37°57' W 008°52'0 0.0
2018-Jul-14 21:59N 37°57' W 008°52'0 0.0
2018-Jul-14 21:29N 37°57' W 008°52'0 0.0
2018-Jul-14 20:59N 37°57' W 008°52'0 0.0
2018-Jul-14 20:29N 37°57' W 008°52'0 0.0
2018-Jul-14 19:59N 37°57' W 008°52'0 0.0
2018-Jul-14 19:29N 37°57' W 008°52'0 0.1
2018-Jul-14 19:01N 37°57' W 008°52'2 3.7
2018-Jul-14 18:30N 37°58' W 008°54'4 8.0
2018-Jul-14 18:01N 38°02' W 008°56'4 8.2
2018-Jul-14 17:31N 38°05' W 008°57'4 7.7
2018-Jul-14 16:59N 38°09' W 008°58'25 7.0
2018-Jul-14 13:23N 38°29' W 009°18'3 6.5
2018-Jul-14 12:54N 38°32' W 009°20'3 6.1
2018-Jul-14 12:29N 38°34' W 009°22'3 6.1
2018-Jul-14 11:59N 38°37' W 009°24'5 0.3
2018-Jul-13 17:53N 38°42' W 009°25'0 0.0
2018-Jul-13 14:38N 38°42' W 009°25'0 0.0
2018-Jul-13 14:14N 38°42' W 009°25'0 0.0
2018-Jul-13 07:56N 38°42' W 009°25'0 0.0
2018-Jul-13 06:20N 38°42' W 009°25'0 0.0
2018-Jul-13 03:11N 38°42' W 009°25'0 0.0
2018-Jul-13 01:20N 38°42' W 009°25'0 0.0
2018-Jul-13 00:59N 38°42' W 009°25'0 0.0
2018-Jul-12 17:02N 38°42' W 009°25'0 0.0
2018-Jul-12 12:44N 38°42' W 009°25'0 0.0
2018-Jul-12 12:20N 38°42' W 009°25'0 0.0
2018-Jul-12 06:07N 38°42' W 009°25'0 0.0
2018-Jul-12 05:55N 38°42' W 009°25'0 0.0
2018-Jul-12 05:25N 38°42' W 009°25'0 0.0
2018-Jul-12 04:55N 38°42' W 009°25'0 0.0
2018-Jul-12 04:25N 38°42' W 009°25'0 0.0
2018-Jul-12 02:19N 38°42' W 009°25'0 0.0
2018-Jul-12 01:43N 38°42' W 009°25'0 0.0
2018-Jul-11 17:17N 38°42' W 009°25'0 0.0
2018-Jul-11 15:53N 38°42' W 009°25'  
2018-Jul-07 14:35N 38°42' W 009°25'0 1.4
2018-Jul-07 14:25N 38°42' W 009°25'1 1.8
2018-Jul-07 13:37N 38°40' W 009°24'1 6.4
2018-Jul-07 13:27N 38°40' W 009°23'3 6.8
2018-Jul-07 12:59N 38°40' W 009°19'2 3.0
2018-Jul-07 12:25N 38°38' W 009°19'1 1.7
2018-Jul-07 12:00N 38°39' W 009°19'5 1.5
2018-Jul-07 08:27N 38°42' W 009°25'0 0.0
2018-Jul-07 06:39N 38°42' W 009°25'0 0.0
2018-Jul-07 02:15N 38°42' W 009°25'0 0.0
2018-Jul-07 01:48N 38°42' W 009°25'0 0.0
2018-Jul-06 22:18N 38°42' W 009°25'0 0.0
2018-Jul-06 21:51N 38°42' W 009°25'0 0.0
2018-Jul-06 19:18N 38°42' W 009°25'0 0.0
2018-Jul-06 18:57N 38°42' W 009°25'0 0.0
2018-Jul-06 18:27N 38°42' W 009°25'0 0.0
2018-Jul-06 11:30N 38°42' W 009°25'0 0.0
2018-Jul-06 08:21N 38°42' W 009°25'0 0.0
2018-Jul-06 06:25N 38°42' W 009°25'0 0.0
2018-Jul-06 04:37N 38°42' W 009°25'0 0.0
2018-Jul-06 04:28N 38°42' W 009°25'0 0.0
2018-Jul-06 02:31N 38°42' W 009°25'0 0.0
2018-Jul-06 01:13N 38°42' W 009°25'0 0.0
2018-Jul-06 00:43N 38°42' W 009°25'0 0.0
2018-Jul-06 00:13N 38°42' W 009°25'0 0.0
2018-Jul-05 23:55N 38°42' W 009°25'0 0.0
2018-Jul-05 17:31N 38°42' W 009°25'0 0.0
2018-Jul-05 12:55N 38°42' W 009°25'  
Track history (hours):
 
Tides and Currents Weather Stations Pressure Air Temp Water Temp Dewpoint Dewpoint Depression Visibility Wind Speed Wind Dir Waves Ship Positions

Bbm

Last reported at 2018-Jul-15 07:46 UTC. Time now 2018-Jul-20 06:57 UTC.
Position N 37°44' W 008°50'.

Length 14 m.

Type: Sailing vessel. MMSI: 263912000.

Date/timePositionNaut miles runAvg speedWind from/ knotsBaromVisibWave heightAir tempDewpointWater temp
2018-Jul-15 07:46N 37°44' W 008°50'2 7.1
2018-Jul-15 07:29N 37°46' W 008°51'3 7.1
2018-Jul-15 07:00N 37°49' W 008°51'4 6.8
2018-Jul-15 06:29N 37°53' W 008°52'3 6.6
2018-Jul-15 06:00N 37°56' W 008°52'1 2.1
2018-Jul-15 05:29N 37°57' W 008°52'0 0.0
2018-Jul-15 04:59N 37°57' W 008°52'0 0.0
2018-Jul-15 04:29N 37°57' W 008°52'0 0.0
2018-Jul-15 03:59N 37°57' W 008°52'0 0.0
2018-Jul-15 03:29N 37°57' W 008°52'0 0.0
2018-Jul-15 02:59N 37°57' W 008°52'0 0.0
2018-Jul-15 02:29N 37°57' W 008°52'0 0.0
2018-Jul-15 01:59N 37°57' W 008°52'0 0.0
2018-Jul-15 01:29N 37°57' W 008°52'0 0.0
2018-Jul-15 00:59N 37°57' W 008°52'0 0.0
2018-Jul-15 00:29N 37°57' W 008°52'0 0.0
2018-Jul-14 23:59N 37°57' W 008°52'0 0.0
2018-Jul-14 23:29N 37°57' W 008°52'0 0.0
2018-Jul-14 22:59N 37°57' W 008°52'0 0.0
2018-Jul-14 22:29N 37°57' W 008°52'0 0.0
2018-Jul-14 21:59N 37°57' W 008°52'0 0.0
2018-Jul-14 21:29N 37°57' W 008°52'0 0.0
2018-Jul-14 20:59N 37°57' W 008°52'0 0.0
2018-Jul-14 20:29N 37°57' W 008°52'0 0.0
2018-Jul-14 19:59N 37°57' W 008°52'0 0.0
2018-Jul-14 19:29N 37°57' W 008°52'0 0.1
2018-Jul-14 19:01N 37°57' W 008°52'2 3.7
2018-Jul-14 18:30N 37°58' W 008°54'4 8.0
2018-Jul-14 18:01N 38°02' W 008°56'4 8.2
2018-Jul-14 17:31N 38°05' W 008°57'4 7.7
2018-Jul-14 16:59N 38°09' W 008°58'25 7.0
2018-Jul-14 13:23N 38°29' W 009°18'3 6.5
2018-Jul-14 12:54N 38°32' W 009°20'3 6.1
2018-Jul-14 12:29N 38°34' W 009°22'3 6.1
2018-Jul-14 11:59N 38°37' W 009°24'5 0.3
2018-Jul-13 17:53N 38°42' W 009°25'0 0.0
2018-Jul-13 14:38N 38°42' W 009°25'0 0.0
2018-Jul-13 14:14N 38°42' W 009°25'0 0.0
2018-Jul-13 07:56N 38°42' W 009°25'0 0.0
2018-Jul-13 06:20N 38°42' W 009°25'0 0.0
2018-Jul-13 03:11N 38°42' W 009°25'0 0.0
2018-Jul-13 01:20N 38°42' W 009°25'0 0.0
2018-Jul-13 00:59N 38°42' W 009°25'0 0.0
2018-Jul-12 17:02N 38°42' W 009°25'0 0.0
2018-Jul-12 12:44N 38°42' W 009°25'0 0.0
2018-Jul-12 12:20N 38°42' W 009°25'0 0.0
2018-Jul-12 06:07N 38°42' W 009°25'0 0.0
2018-Jul-12 05:55N 38°42' W 009°25'0 0.0
2018-Jul-12 05:25N 38°42' W 009°25'0 0.0
2018-Jul-12 04:55N 38°42' W 009°25'0 0.0
2018-Jul-12 04:25N 38°42' W 009°25'0 0.0
2018-Jul-12 02:19N 38°42' W 009°25'0 0.0
2018-Jul-12 01:43N 38°42' W 009°25'0 0.0
2018-Jul-11 17:17N 38°42' W 009°25'0 0.0
2018-Jul-11 15:53N 38°42' W 009°25'  
2018-Jul-07 14:35N 38°42' W 009°25'0 1.4
2018-Jul-07 14:25N 38°42' W 009°25'1 1.8
2018-Jul-07 13:37N 38°40' W 009°24'1 6.4
2018-Jul-07 13:27N 38°40' W 009°23'3 6.8
2018-Jul-07 12:59N 38°40' W 009°19'2 3.0
2018-Jul-07 12:25N 38°38' W 009°19'1 1.7
2018-Jul-07 12:00N 38°39' W 009°19'5 1.5
2018-Jul-07 08:27N 38°42' W 009°25'0 0.0
2018-Jul-07 06:39N 38°42' W 009°25'0 0.0
2018-Jul-07 02:15N 38°42' W 009°25'0 0.0
2018-Jul-07 01:48N 38°42' W 009°25'0 0.0
2018-Jul-06 22:18N 38°42' W 009°25'0 0.0
2018-Jul-06 21:51N 38°42' W 009°25'0 0.0
2018-Jul-06 19:18N 38°42' W 009°25'0 0.0
2018-Jul-06 18:57N 38°42' W 009°25'0 0.0
2018-Jul-06 18:27N 38°42' W 009°25'0 0.0
2018-Jul-06 11:30N 38°42' W 009°25'0 0.0
2018-Jul-06 08:21N 38°42' W 009°25'0 0.0
2018-Jul-06 06:25N 38°42' W 009°25'0 0.0
2018-Jul-06 04:37N 38°42' W 009°25'0 0.0
2018-Jul-06 04:28N 38°42' W 009°25'0 0.0
2018-Jul-06 02:31N 38°42' W 009°25'0 0.0
2018-Jul-06 01:13N 38°42' W 009°25'0 0.0
2018-Jul-06 00:43N 38°42' W 009°25'0 0.0
2018-Jul-06 00:13N 38°42' W 009°25'0 0.0
2018-Jul-05 23:55N 38°42' W 009°25'0 0.0
2018-Jul-05 17:31N 38°42' W 009°25'0 0.0
2018-Jul-05 12:55N 38°42' W 009°25'  

Dump ship's entire track history